• Join FlightAware (Why Join?)
  • Login
  • US Flag 
11:40PM EST


 

Airport Tracker/Info


-or-


 

Live Flight TrackerFlight Track Log ✈ EZY2795 ✈ 24-Apr-2013 ✈ LIMC / MXP - EBBR / BRU

Flight Track Log - Related Links

Times and Time Zones

All times are in EDT time to prevent confusion due to time zone crossing. See the EZY2795 flight status page for this flight to view local times or setup timezone preferences in your user account.

Time Position Orientation Groundspeed Altitude Reporting Facility
EDT Latitude Longitude Course Direction KTS MPH feet Rate Location/Type
12:41AM 46.1951 8.3188 333° Northwest  Level Estimated
12:42AM 46.2577 8.2728 333° Northwest  Level Estimated
12:43AM 46.3203 8.2267 333° Northwest  Level Estimated
12:44AM 46.3829 8.1805 333° Northwest  Level Estimated
12:45AM 46.4455 8.1342 333° Northwest  Level Estimated
12:46AM 46.5080 8.0878 333° Northwest  Level Estimated
12:47AM 46.5705 8.0413 333° Northwest  Level Estimated
12:48AM 46.6424 7.9877 333° Northwest  Level Estimated
12:49AM 46.7141 7.9340 333° Northwest  Level Estimated
12:50AM 46.7859 7.8801 333° Northwest  Level Estimated
12:51AM 46.8576 7.8261 333° Northwest  Level Estimated
12:52AM 46.9293 7.7720 333° Northwest  Level Estimated
12:53AM 47.0010 7.7177 333° Northwest  Level Estimated
12:54AM 47.0727 7.6632 333° Northwest  Level Estimated
12:55AM 47.1443 7.6087 333° Northwest  Level Estimated
12:56AM 47.2159 7.5539 333° Northwest  Level Estimated
12:57AM 47.2875 7.4991 333° Northwest  Level Estimated
12:58AM 47.3590 7.4440 332° Northwest  Level Estimated
12:59AM 47.4305 7.3889 332° Northwest  Level Estimated
01:00AM 47.5020 7.3335 332° Northwest  Level Estimated
01:01AM 47.5735 7.2780 332° Northwest  Level Estimated
01:02AM 47.6450 7.2224 332° Northwest  Level Estimated
01:03AM 47.7164 7.1666 332° Northwest  Level Estimated
01:04AM 47.7878 7.1107 332° Northwest  Level Estimated
01:05AM 47.8591 7.0546 332° Northwest  Level Estimated
01:06AM 47.9305 6.9984 332° Northwest  Level Estimated
01:07AM 48.0018 6.9420 332° Northwest  Level Estimated
01:08AM 48.0731 6.8854 332° Northwest  Level Estimated
01:09AM 48.1443 6.8287 332° Northwest  Level Estimated
01:10AM 48.2155 6.7718 332° Northwest  Level Estimated
01:11AM 48.2867 6.7148 332° Northwest  Level Estimated
01:12AM 48.3579 6.6576 332° Northwest  Level Estimated
01:13AM 48.4290 6.6002 332° Northwest  Level Estimated
01:14AM 48.5001 6.5427 332° Northwest  Level Estimated
01:15AM 48.5712 6.4851 332° Northwest  Level Estimated
01:16AM 48.6423 6.4272 332° Northwest  Level Estimated
01:17AM 48.7133 6.3692 332° Northwest  Level Estimated
01:18AM 48.7843 6.3111 332° Northwest  Level Estimated
01:19AM 48.8553 6.2528 332° Northwest  Level Estimated
01:20AM 48.9262 6.1943 332° Northwest  Level Estimated
01:21AM 48.9971 6.1356 332° Northwest  Level Estimated
01:22AM 49.0680 6.0768 331° Northwest  Level Estimated
01:23AM 49.1388 6.0178 331° Northwest  Level Estimated
01:24AM 49.2096 5.9587 331° Northwest  Level Estimated
01:25AM 49.2804 5.8993 331° Northwest  Level Estimated
01:26AM 49.3512 5.8398 331° Northwest  Level Estimated
01:27AM 49.4219 5.7801 331° Northwest  Level Estimated
01:28AM 49.4926 5.7203 331° Northwest  Level Estimated
01:29AM 49.5663 5.6578 331° Northwest  Level Estimated
01:30AM 49.6399 5.5950 331° Northwest  Level Estimated
01:31AM 49.7135 5.5321 331° Northwest  Level Estimated
01:32AM 49.7870 5.4689 331° Northwest  Level Estimated
01:33AM 49.8605 5.4056 331° Northwest  Level Estimated
01:34AM 49.9340 5.3421 331° Northwest  Level Estimated
01:35AM 50.0074 5.2784 331° Northwest  Level Estimated
01:36AM 50.0808 5.2145 331° Northwest  Level Estimated
01:37AM 50.1542 5.1504 331° Northwest  Level Estimated
01:38AM 50.2276 5.0861 331° Northwest  Level Estimated
01:39AM 50.3008 5.0216 331° Northwest  Level Estimated
01:40AM 50.3741 4.9569 331° Northwest  Level Estimated
01:41AM 50.4473 4.8920 331° Northwest  Level Estimated
01:42AM 50.5205 4.8270 331° Northwest  Level Estimated
01:43AM 50.5937 4.7617 330° Northwest  Level Estimated
01:44AM 50.6668 4.6962 330° Northwest  Level Estimated
01:45AM 50.7399 4.6305 330° Northwest  Level Estimated
01:46AM 50.8130 4.5646 330° Northwest  Level Estimated
01:47AM 50.8860 4.4984 330° Northwest  Level Estimated
01:48AM 50.9014 4.4844 330° Northwest  Level Estimated
01:49AM 50.9014 4.4844 112° Southeast  Level Estimated
01:50AM 50.9014 4.4844 112° Southeast  Level Estimated
01:51AM 50.9014 4.4844 112° Southeast  Level Estimated
01:52AM 50.9014 4.4844 112° Southeast  Level Estimated
01:53AM 50.9014 4.4844 112° Southeast  Level Estimated
01:54AM 50.9014 4.4844 112° Southeast  Level Estimated
01:55AM 50.9014 4.4844 112° Southeast  Level Estimated
01:56AM 50.9014 4.4844 112° Southeast  Level Estimated
01:57AM 50.9014 4.4844 112° Southeast  Level Estimated
01:58AM 50.9014 4.4844 112° Southeast  Level Estimated
01:59AM 50.9014 4.4844 112° Southeast  Level Estimated